Tuesday, December 18, 2018, 4:19 PM EST
Back to Local

KPWM, Portland International Jetport

Location: Portland, ME, United States Lat: 43.65
Local Time: 4:19 PM EST (21:19 GMT) Lon: -70.3
Time Zone: US/Eastern Elev: 75 ft

Show me the last for .
Show Decoded

2018-12-18 15:51 METAR KPWM 182051Z 33011G27KT 10SM FEW050 M03/M12 A2987 RMK AO2 PK WND
                 34032/1952 SLP116 T10331122 53033 =
2018-12-18 14:51 METAR KPWM 181951Z 33019G32KT 10SM FEW050 M03/M12 A2983 RMK AO2 PK WND
                 33040/1901 SLP103 T10281122 =
2018-12-18 13:51 METAR KPWM 181851Z 32023G39KT 10SM FEW050 M03/M12 A2980 RMK AO2 PK WND
                 34039/1847 SLP092 T10281122 =
2018-12-18 12:51 METAR KPWM 181751Z 32023G38KT 10SM FEW050 M02/M12 A2977 RMK AO2 PK WND
                 31039/1653 SLP083 T10221122 11022 21050 53007 =
2018-12-18 11:51 METAR KPWM 181651Z 33019G30KT 10SM FEW100 M03/M12 A2977 RMK AO2 PK WND
                 32030/1642 SLP080 T10281122 =
2018-12-18 10:51 METAR KPWM 181551Z 32019G27KT 10SM FEW090 M03/M13 A2976 RMK AO2 PK WND
                 33031/1502 SLP078 T10331128 =
2018-12-18 09:51 METAR KPWM 181451Z 33014G30KT 10SM FEW085 FEW090 M03/M13 A2975 RMK AO2 PK WND
                 31036/1424 SLP076 T10331128 51035 =
2018-12-18 08:51 METAR KPWM 181351Z 33017G25KT 10SM FEW085 SCT090 SCT250 M04/M12 A2973 RMK AO2 PK
                 WND 34033/1321 SLP067 T10441122 =
2018-12-18 07:51 METAR KPWM 181251Z 32016G27KT 10SM BKN090 M04/M13 A2969 RMK AO2 PK WND
                 33028/1203 SLP055 T10441128 =
2018-12-18 06:51 METAR KPWM 181151Z 33011G22KT 10SM BKN080 OVC090 M04/M13 A2965 RMK AO2 SLP042
                 70009 T10441128 10011 21044 52033 =
2018-12-18 05:51 METAR KPWM 181051Z 32013G21KT 10SM FEW080 OVC120 M04/M12 A2962 RMK AO2 PK WND
                 32026/1008 SLP031 T10391117 =
2018-12-18 04:51 METAR KPWM 180951Z 30016G24KT 10SM SCT090 OVC110 M03/M11 A2959 RMK AO2 SLP019
                 T10331111 =
2018-12-18 03:51 METAR KPWM 180851Z AUTO 32014KT 10SM OVC100 M03/M11 A2955 RMK AO2 PK WND
                 31030/0801 SLP009 T10281111 53032 =
2018-12-18 02:51 METAR KPWM 180751Z AUTO 31017G26KT 10SM FEW042 OVC100 M01/M09 A2952 RMK AO2 PK
                 WND 32026/0746 SLP997 T10111089 =
2018-12-18 01:51 METAR KPWM 180651Z AUTO 29017G26KT 10SM BKN042 OVC100 M01/M07 A2949 RMK AO2 PK
                 WND 29027/0643 SLP988 T10061067 =
2018-12-18 00:51 METAR KPWM 180551Z AUTO 31010KT 10SM OVC100 01/M04 A2946 RMK AO2 SLP977
                 T00111044 10022 20011 55004 =
2018-12-17 23:51 METAR KPWM 180451Z 29014G20KT 10SM OVC095 02/M03 A2944 RMK AO2 SLP971 LAST
                 T00171028 400220000 =
2018-12-17 22:51 METAR KPWM 180351Z 29011KT 10SM OVC050 02/M03 A2946 RMK AO2 SLP976 T00171028 =
2018-12-17 21:51 METAR KPWM 180251Z 28011KT 10SM SCT050 BKN075 OVC090 02/M02 A2947 RMK AO2 SLP980
                 T00171022 58003 =
2018-12-17 20:51 METAR KPWM 180151Z 28007KT 10SM BKN049 OVC080 01/M01 A2948 RMK AO2 SLP983
                 T00111011 =
2018-12-17 19:51 METAR KPWM 180051Z 30006KT 10SM OVC033 02/M01 A2948 RMK AO2 SLP984 T00171011 =
2018-12-17 18:51 METAR KPWM 172351Z 30009KT 10SM OVC032 02/00 A2948 RMK AO2 SLP983 60000
                 T00220000 10022 20017 55002 =
2018-12-17 17:51 METAR KPWM 172251Z 29007KT 10SM BKN050 OVC070 02/01 A2947 RMK AO2 SLP982
                 T00170006 =
2018-12-17 16:51 METAR KPWM 172151Z 27006KT 10SM OVC060 02/01 A2948 RMK AO2 SLP982 T00170011 =

Support USWX by starting your Amazon purchase here.